sensor_id;sensor_type;location;lat;lon;timestamp;P1;durP1;ratioP1;P2;durP2;ratioP2
60312;SDS011;46158;52.850;6.970;2023-07-31T00:00:06;5.25;;;2.20;;
60312;SDS011;46158;52.850;6.970;2023-07-31T00:02:34;8.95;;;2.30;;
60312;SDS011;46158;52.850;6.970;2023-07-31T00:05:00;6.90;;;2.45;;
60312;SDS011;46158;52.850;6.970;2023-07-31T00:07:26;6.05;;;2.30;;
60312;SDS011;46158;52.850;6.970;2023-07-31T00:09:52;6.93;;;2.50;;
60312;SDS011;46158;52.850;6.970;2023-07-31T00:12:19;7.03;;;2.30;;
60312;SDS011;46158;52.850;6.970;2023-07-31T00:14:45;6.78;;;2.33;;
60312;SDS011;46158;52.850;6.970;2023-07-31T00:17:11;7.05;;;2.30;;
60312;SDS011;46158;52.850;6.970;2023-07-31T00:19:37;6.97;;;2.25;;
60312;SDS011;46158;52.850;6.970;2023-07-31T00:22:02;7.72;;;2.67;;
60312;SDS011;46158;52.850;6.970;2023-07-31T00:24:28;8.65;;;2.50;;
60312;SDS011;46158;52.850;6.970;2023-07-31T00:26:54;8.50;;;2.30;;
60312;SDS011;46158;52.850;6.970;2023-07-31T00:29:20;5.57;;;2.15;;
60312;SDS011;46158;52.850;6.970;2023-07-31T00:31:45;4.95;;;2.25;;
60312;SDS011;46158;52.850;6.970;2023-07-31T00:34:11;6.60;;;2.30;;
60312;SDS011;46158;52.850;6.970;2023-07-31T00:36:37;7.55;;;2.40;;
60312;SDS011;46158;52.850;6.970;2023-07-31T00:39:02;6.85;;;2.20;;
60312;SDS011;46158;52.850;6.970;2023-07-31T00:41:29;4.95;;;2.20;;
60312;SDS011;46158;52.850;6.970;2023-07-31T00:43:55;5.65;;;2.25;;
60312;SDS011;46158;52.850;6.970;2023-07-31T00:46:20;6.10;;;2.10;;
60312;SDS011;46158;52.850;6.970;2023-07-31T00:48:46;6.85;;;2.10;;
60312;SDS011;46158;52.850;6.970;2023-07-31T00:51:12;6.43;;;2.30;;
60312;SDS011;46158;52.850;6.970;2023-07-31T00:53:38;5.45;;;2.35;;
60312;SDS011;46158;52.850;6.970;2023-07-31T00:56:05;6.07;;;2.40;;
60312;SDS011;46158;52.850;6.970;2023-07-31T00:58:31;7.38;;;2.30;;
60312;SDS011;46158;52.850;6.970;2023-07-31T01:00:57;6.32;;;2.40;;
60312;SDS011;46158;52.850;6.970;2023-07-31T01:03:23;7.13;;;2.22;;
60312;SDS011;46158;52.850;6.970;2023-07-31T01:05:56;7.15;;;2.40;;
60312;SDS011;46158;52.850;6.970;2023-07-31T01:10:56;4.35;;;2.03;;
60312;SDS011;46158;52.850;6.970;2023-07-31T01:13:27;4.43;;;2.00;;
60312;SDS011;46158;52.850;6.970;2023-07-31T01:15:54;5.00;;;2.30;;
60312;SDS011;46158;52.850;6.970;2023-07-31T01:18:20;4.72;;;2.20;;
60312;SDS011;46158;52.850;6.970;2023-07-31T01:20:47;6.03;;;2.20;;
60312;SDS011;46158;52.850;6.970;2023-07-31T01:26:36;4.68;;;2.10;;
60312;SDS011;46158;52.850;6.970;2023-07-31T01:29:06;6.88;;;2.28;;
60312;SDS011;46158;52.850;6.970;2023-07-31T01:31:42;7.20;;;2.08;;
60312;SDS011;46158;52.850;6.970;2023-07-31T01:34:13;6.13;;;2.30;;
60312;SDS011;46158;52.850;6.970;2023-07-31T01:36:42;4.73;;;2.10;;
60312;SDS011;46158;52.850;6.970;2023-07-31T01:39:08;4.82;;;2.03;;
60312;SDS011;46158;52.850;6.970;2023-07-31T01:41:34;4.38;;;2.30;;
60312;SDS011;46158;52.850;6.970;2023-07-31T01:44:00;3.55;;;1.95;;
60312;SDS011;46158;52.850;6.970;2023-07-31T01:46:25;4.95;;;2.10;;
60312;SDS011;46158;52.850;6.970;2023-07-31T01:48:51;6.63;;;2.17;;
60312;SDS011;46158;52.850;6.970;2023-07-31T01:51:17;4.43;;;2.20;;
60312;SDS011;46158;52.850;6.970;2023-07-31T01:53:42;4.05;;;2.00;;
60312;SDS011;46158;52.850;6.970;2023-07-31T01:56:08;3.50;;;1.90;;
60312;SDS011;46158;52.850;6.970;2023-07-31T01:58:34;4.43;;;2.03;;
60312;SDS011;46158;52.850;6.970;2023-07-31T02:00:59;5.03;;;2.20;;
60312;SDS011;46158;52.850;6.970;2023-07-31T02:03:25;4.03;;;2.10;;
60312;SDS011;46158;52.850;6.970;2023-07-31T02:05:50;4.88;;;2.10;;
60312;SDS011;46158;52.850;6.970;2023-07-31T02:08:16;5.72;;;2.20;;
60312;SDS011;46158;52.850;6.970;2023-07-31T02:10:43;4.43;;;1.88;;
60312;SDS011;46158;52.850;6.970;2023-07-31T02:13:09;4.07;;;2.00;;
60312;SDS011;46158;52.850;6.970;2023-07-31T02:15:34;2.85;;;2.00;;
60312;SDS011;46158;52.850;6.970;2023-07-31T02:18:00;4.82;;;2.00;;
60312;SDS011;46158;52.850;6.970;2023-07-31T02:20:26;2.63;;;1.75;;
60312;SDS011;46158;52.850;6.970;2023-07-31T02:22:51;6.00;;;2.13;;
60312;SDS011;46158;52.850;6.970;2023-07-31T02:25:17;3.80;;;2.08;;
60312;SDS011;46158;52.850;6.970;2023-07-31T02:27:43;4.57;;;1.85;;
60312;SDS011;46158;52.850;6.970;2023-07-31T02:30:08;4.93;;;1.90;;
60312;SDS011;46158;52.850;6.970;2023-07-31T02:32:35;3.50;;;1.90;;
60312;SDS011;46158;52.850;6.970;2023-07-31T02:35:00;3.53;;;2.00;;
60312;SDS011;46158;52.850;6.970;2023-07-31T02:37:26;5.07;;;2.00;;
60312;SDS011;46158;52.850;6.970;2023-07-31T02:39:53;3.63;;;2.00;;
60312;SDS011;46158;52.850;6.970;2023-07-31T02:42:19;3.67;;;1.80;;
60312;SDS011;46158;52.850;6.970;2023-07-31T02:44:45;2.95;;;1.80;;
60312;SDS011;46158;52.850;6.970;2023-07-31T02:47:11;4.28;;;2.00;;
60312;SDS011;46158;52.850;6.970;2023-07-31T02:49:36;3.30;;;1.80;;
60312;SDS011;46158;52.850;6.970;2023-07-31T02:52:02;3.33;;;1.90;;
60312;SDS011;46158;52.850;6.970;2023-07-31T02:54:28;3.10;;;1.90;;
60312;SDS011;46158;52.850;6.970;2023-07-31T02:56:54;5.28;;;1.92;;
60312;SDS011;46158;52.850;6.970;2023-07-31T02:59:19;2.40;;;1.88;;
60312;SDS011;46158;52.850;6.970;2023-07-31T03:01:45;3.58;;;1.92;;
60312;SDS011;46158;52.850;6.970;2023-07-31T03:04:11;3.72;;;1.90;;
60312;SDS011;46158;52.850;6.970;2023-07-31T03:06:37;4.03;;;2.00;;
60312;SDS011;46158;52.850;6.970;2023-07-31T03:09:02;4.30;;;1.95;;
60312;SDS011;46158;52.850;6.970;2023-07-31T03:11:28;5.00;;;1.90;;
60312;SDS011;46158;52.850;6.970;2023-07-31T03:13:54;3.45;;;1.80;;
60312;SDS011;46158;52.850;6.970;2023-07-31T03:16:19;4.95;;;2.08;;
60312;SDS011;46158;52.850;6.970;2023-07-31T03:18:45;4.13;;;2.03;;
60312;SDS011;46158;52.850;6.970;2023-07-31T03:21:10;3.05;;;1.80;;
60312;SDS011;46158;52.850;6.970;2023-07-31T03:23:37;3.03;;;1.67;;
60312;SDS011;46158;52.850;6.970;2023-07-31T03:26:06;5.60;;;1.90;;
60312;SDS011;46158;52.850;6.970;2023-07-31T03:28:32;2.40;;;1.60;;
60312;SDS011;46158;52.850;6.970;2023-07-31T03:30:58;4.18;;;1.90;;
60312;SDS011;46158;52.850;6.970;2023-07-31T03:33:24;2.78;;;1.88;;
60312;SDS011;46158;52.850;6.970;2023-07-31T03:35:50;2.25;;;1.65;;
60312;SDS011;46158;52.850;6.970;2023-07-31T03:38:16;4.28;;;1.88;;
60312;SDS011;46158;52.850;6.970;2023-07-31T03:40:42;3.25;;;1.90;;
60312;SDS011;46158;52.850;6.970;2023-07-31T03:43:08;5.13;;;1.90;;
60312;SDS011;46158;52.850;6.970;2023-07-31T03:45:33;3.47;;;1.70;;
60312;SDS011;46158;52.850;6.970;2023-07-31T03:47:59;2.55;;;1.83;;
60312;SDS011;46158;52.850;6.970;2023-07-31T03:50:25;2.30;;;1.73;;
60312;SDS011;46158;52.850;6.970;2023-07-31T03:52:51;4.85;;;1.80;;
60312;SDS011;46158;52.850;6.970;2023-07-31T03:55:17;3.88;;;1.70;;
60312;SDS011;46158;52.850;6.970;2023-07-31T03:57:43;3.72;;;1.63;;
60312;SDS011;46158;52.850;6.970;2023-07-31T04:00:09;3.47;;;1.58;;
60312;SDS011;46158;52.850;6.970;2023-07-31T04:02:35;3.03;;;1.80;;
60312;SDS011;46158;52.850;6.970;2023-07-31T04:05:01;3.33;;;1.80;;
60312;SDS011;46158;52.850;6.970;2023-07-31T04:07:26;3.75;;;1.58;;
60312;SDS011;46158;52.850;6.970;2023-07-31T04:09:52;5.55;;;1.77;;
60312;SDS011;46158;52.850;6.970;2023-07-31T04:12:18;3.80;;;1.77;;
60312;SDS011;46158;52.850;6.970;2023-07-31T04:14:44;3.67;;;1.80;;
60312;SDS011;46158;52.850;6.970;2023-07-31T04:17:09;2.38;;;1.60;;
60312;SDS011;46158;52.850;6.970;2023-07-31T04:19:35;3.15;;;1.80;;
60312;SDS011;46158;52.850;6.970;2023-07-31T04:22:00;3.17;;;1.58;;
60312;SDS011;46158;52.850;6.970;2023-07-31T04:24:26;2.95;;;1.80;;
60312;SDS011;46158;52.850;6.970;2023-07-31T04:26:52;2.60;;;1.65;;
60312;SDS011;46158;52.850;6.970;2023-07-31T04:29:18;3.08;;;1.85;;
60312;SDS011;46158;52.850;6.970;2023-07-31T04:31:44;2.65;;;1.60;;
60312;SDS011;46158;52.850;6.970;2023-07-31T04:34:10;3.70;;;1.65;;
60312;SDS011;46158;52.850;6.970;2023-07-31T04:36:36;2.58;;;1.70;;
60312;SDS011;46158;52.850;6.970;2023-07-31T04:39:02;2.53;;;1.73;;
60312;SDS011;46158;52.850;6.970;2023-07-31T04:41:30;4.82;;;1.90;;
60312;SDS011;46158;52.850;6.970;2023-07-31T04:43:56;2.80;;;1.40;;
60312;SDS011;46158;52.850;6.970;2023-07-31T04:46:23;3.60;;;1.90;;
60312;SDS011;46158;52.850;6.970;2023-07-31T04:48:49;2.92;;;1.58;;
60312;SDS011;46158;52.850;6.970;2023-07-31T04:51:14;1.67;;;1.50;;
60312;SDS011;46158;52.850;6.970;2023-07-31T04:53:40;7.47;;;2.08;;
60312;SDS011;46158;52.850;6.970;2023-07-31T04:56:06;15.05;;;2.80;;
60312;SDS011;46158;52.850;6.970;2023-07-31T04:58:31;14.60;;;3.03;;
60312;SDS011;46158;52.850;6.970;2023-07-31T05:00:57;11.80;;;2.80;;
60312;SDS011;46158;52.850;6.970;2023-07-31T05:03:23;10.90;;;2.75;;
60312;SDS011;46158;52.850;6.970;2023-07-31T05:05:49;16.13;;;3.22;;
60312;SDS011;46158;52.850;6.970;2023-07-31T05:08:15;12.02;;;3.15;;
60312;SDS011;46158;52.850;6.970;2023-07-31T05:10:42;13.60;;;3.15;;
60312;SDS011;46158;52.850;6.970;2023-07-31T05:13:08;17.10;;;3.67;;
60312;SDS011;46158;52.850;6.970;2023-07-31T05:15:34;14.23;;;3.28;;
60312;SDS011;46158;52.850;6.970;2023-07-31T05:18:00;15.98;;;3.00;;
60312;SDS011;46158;52.850;6.970;2023-07-31T05:20:25;13.82;;;3.13;;
60312;SDS011;46158;52.850;6.970;2023-07-31T05:22:52;14.73;;;3.38;;
60312;SDS011;46158;52.850;6.970;2023-07-31T05:25:18;14.48;;;3.03;;
60312;SDS011;46158;52.850;6.970;2023-07-31T05:27:44;17.33;;;3.38;;
60312;SDS011;46158;52.850;6.970;2023-07-31T05:30:09;12.95;;;3.30;;
60312;SDS011;46158;52.850;6.970;2023-07-31T05:32:35;16.05;;;3.50;;
60312;SDS011;46158;52.850;6.970;2023-07-31T05:35:01;13.38;;;3.00;;
60312;SDS011;46158;52.850;6.970;2023-07-31T05:37:27;14.60;;;3.08;;
60312;SDS011;46158;52.850;6.970;2023-07-31T05:39:53;13.27;;;2.88;;
60312;SDS011;46158;52.850;6.970;2023-07-31T05:42:19;15.95;;;3.10;;
60312;SDS011;46158;52.850;6.970;2023-07-31T05:44:45;11.77;;;2.65;;
60312;SDS011;46158;52.850;6.970;2023-07-31T05:47:10;10.48;;;3.00;;
60312;SDS011;46158;52.850;6.970;2023-07-31T05:49:36;9.88;;;2.70;;
60312;SDS011;46158;52.850;6.970;2023-07-31T05:52:02;12.68;;;2.90;;
60312;SDS011;46158;52.850;6.970;2023-07-31T05:54:27;14.50;;;3.17;;
60312;SDS011;46158;52.850;6.970;2023-07-31T05:56:53;9.40;;;2.67;;
60312;SDS011;46158;52.850;6.970;2023-07-31T05:59:19;14.60;;;2.90;;
60312;SDS011;46158;52.850;6.970;2023-07-31T06:01:44;12.55;;;3.13;;
60312;SDS011;46158;52.850;6.970;2023-07-31T06:04:10;16.85;;;3.30;;
60312;SDS011;46158;52.850;6.970;2023-07-31T06:06:36;12.05;;;3.03;;
60312;SDS011;46158;52.850;6.970;2023-07-31T06:09:01;16.40;;;3.50;;
60312;SDS011;46158;52.850;6.970;2023-07-31T06:11:28;15.70;;;3.53;;
60312;SDS011;46158;52.850;6.970;2023-07-31T06:13:54;14.90;;;3.60;;
60312;SDS011;46158;52.850;6.970;2023-07-31T06:16:20;14.32;;;3.63;;
60312;SDS011;46158;52.850;6.970;2023-07-31T06:18:49;14.32;;;3.40;;
60312;SDS011;46158;52.850;6.970;2023-07-31T06:21:15;13.30;;;3.28;;
60312;SDS011;46158;52.850;6.970;2023-07-31T06:23:40;14.57;;;3.33;;
60312;SDS011;46158;52.850;6.970;2023-07-31T06:26:06;12.63;;;3.58;;
60312;SDS011;46158;52.850;6.970;2023-07-31T06:28:32;17.55;;;3.55;;
60312;SDS011;46158;52.850;6.970;2023-07-31T06:30:58;14.73;;;3.95;;
60312;SDS011;46158;52.850;6.970;2023-07-31T06:33:24;16.33;;;4.07;;
60312;SDS011;46158;52.850;6.970;2023-07-31T06:35:50;14.88;;;3.75;;
60312;SDS011;46158;52.850;6.970;2023-07-31T06:38:16;16.63;;;3.47;;
60312;SDS011;46158;52.850;6.970;2023-07-31T06:40:44;16.23;;;3.85;;
60312;SDS011;46158;52.850;6.970;2023-07-31T06:43:09;16.08;;;3.97;;
60312;SDS011;46158;52.850;6.970;2023-07-31T06:45:35;16.60;;;3.63;;
60312;SDS011;46158;52.850;6.970;2023-07-31T06:48:02;16.33;;;3.83;;
60312;SDS011;46158;52.850;6.970;2023-07-31T06:50:29;15.32;;;3.65;;
60312;SDS011;46158;52.850;6.970;2023-07-31T06:52:55;15.27;;;3.88;;
60312;SDS011;46158;52.850;6.970;2023-07-31T06:55:22;15.68;;;3.83;;
60312;SDS011;46158;52.850;6.970;2023-07-31T06:57:49;17.50;;;3.55;;
60312;SDS011;46158;52.850;6.970;2023-07-31T07:00:16;16.38;;;3.95;;
60312;SDS011;46158;52.850;6.970;2023-07-31T07:02:42;16.10;;;3.80;;
60312;SDS011;46158;52.850;6.970;2023-07-31T07:05:08;18.58;;;4.03;;
60312;SDS011;46158;52.850;6.970;2023-07-31T07:07:34;13.55;;;3.60;;
60312;SDS011;46158;52.850;6.970;2023-07-31T07:10:00;14.98;;;3.70;;
60312;SDS011;46158;52.850;6.970;2023-07-31T07:12:28;13.55;;;3.40;;
60312;SDS011;46158;52.850;6.970;2023-07-31T07:14:55;15.80;;;4.00;;
60312;SDS011;46158;52.850;6.970;2023-07-31T07:17:24;15.48;;;3.97;;
60312;SDS011;46158;52.850;6.970;2023-07-31T07:19:50;17.70;;;4.28;;
60312;SDS011;46158;52.850;6.970;2023-07-31T07:22:16;14.32;;;3.85;;
60312;SDS011;46158;52.850;6.970;2023-07-31T07:24:41;14.65;;;3.65;;
60312;SDS011;46158;52.850;6.970;2023-07-31T07:27:07;13.85;;;3.60;;
60312;SDS011;46158;52.850;6.970;2023-07-31T07:29:37;14.82;;;3.95;;
60312;SDS011;46158;52.850;6.970;2023-07-31T07:32:03;16.90;;;4.10;;
60312;SDS011;46158;52.850;6.970;2023-07-31T07:34:30;14.25;;;3.67;;
60312;SDS011;46158;52.850;6.970;2023-07-31T07:36:55;13.02;;;3.97;;
60312;SDS011;46158;52.850;6.970;2023-07-31T07:39:21;16.65;;;3.80;;
60312;SDS011;46158;52.850;6.970;2023-07-31T07:41:47;14.10;;;3.63;;
60312;SDS011;46158;52.850;6.970;2023-07-31T07:44:13;17.88;;;4.10;;
60312;SDS011;46158;52.850;6.970;2023-07-31T07:46:39;12.68;;;3.55;;
60312;SDS011;46158;52.850;6.970;2023-07-31T07:49:05;14.35;;;3.80;;
60312;SDS011;46158;52.850;6.970;2023-07-31T07:51:31;13.88;;;3.67;;
60312;SDS011;46158;52.850;6.970;2023-07-31T07:54:00;13.27;;;3.95;;
60312;SDS011;46158;52.850;6.970;2023-07-31T07:56:26;13.38;;;3.72;;
60312;SDS011;46158;52.850;6.970;2023-07-31T07:58:52;15.45;;;3.90;;
60312;SDS011;46158;52.850;6.970;2023-07-31T08:01:19;14.10;;;4.00;;
60312;SDS011;46158;52.850;6.970;2023-07-31T08:03:45;14.15;;;3.70;;
60312;SDS011;46158;52.850;6.970;2023-07-31T08:06:11;15.70;;;3.72;;
60312;SDS011;46158;52.850;6.970;2023-07-31T08:08:37;13.50;;;3.58;;
60312;SDS011;46158;52.850;6.970;2023-07-31T08:11:03;14.55;;;3.70;;
60312;SDS011;46158;52.850;6.970;2023-07-31T08:13:29;14.32;;;3.42;;
60312;SDS011;46158;52.850;6.970;2023-07-31T08:15:55;16.02;;;4.03;;
60312;SDS011;46158;52.850;6.970;2023-07-31T08:18:21;15.00;;;3.90;;
60312;SDS011;46158;52.850;6.970;2023-07-31T08:20:46;13.85;;;3.92;;
60312;SDS011;46158;52.850;6.970;2023-07-31T08:23:12;12.43;;;3.65;;
60312;SDS011;46158;52.850;6.970;2023-07-31T08:25:38;15.73;;;4.03;;
60312;SDS011;46158;52.850;6.970;2023-07-31T08:28:05;13.15;;;3.60;;
60312;SDS011;46158;52.850;6.970;2023-07-31T08:30:31;14.05;;;4.00;;
60312;SDS011;46158;52.850;6.970;2023-07-31T08:32:58;15.55;;;3.90;;
60312;SDS011;46158;52.850;6.970;2023-07-31T08:35:24;15.07;;;4.07;;
60312;SDS011;46158;52.850;6.970;2023-07-31T08:37:50;17.45;;;3.80;;
60312;SDS011;46158;52.850;6.970;2023-07-31T08:40:16;14.98;;;3.95;;
60312;SDS011;46158;52.850;6.970;2023-07-31T08:42:47;12.00;;;3.33;;
60312;SDS011;46158;52.850;6.970;2023-07-31T08:45:13;14.55;;;3.90;;
60312;SDS011;46158;52.850;6.970;2023-07-31T08:47:42;15.68;;;3.88;;
60312;SDS011;46158;52.850;6.970;2023-07-31T08:50:16;12.77;;;3.67;;
60312;SDS011;46158;52.850;6.970;2023-07-31T08:52:43;14.48;;;3.60;;
60312;SDS011;46158;52.850;6.970;2023-07-31T08:55:09;13.88;;;3.88;;
60312;SDS011;46158;52.850;6.970;2023-07-31T08:57:36;16.30;;;3.97;;
60312;SDS011;46158;52.850;6.970;2023-07-31T09:00:03;17.90;;;3.92;;
60312;SDS011;46158;52.850;6.970;2023-07-31T09:05:07;17.40;;;3.83;;
60312;SDS011;46158;52.850;6.970;2023-07-31T09:07:34;15.05;;;3.70;;
60312;SDS011;46158;52.850;6.970;2023-07-31T09:10:01;13.82;;;3.60;;
60312;SDS011;46158;52.850;6.970;2023-07-31T09:12:27;11.48;;;3.28;;
60312;SDS011;46158;52.850;6.970;2023-07-31T09:14:53;13.73;;;4.47;;
60312;SDS011;46158;52.850;6.970;2023-07-31T09:17:28;13.55;;;3.88;;
60312;SDS011;46158;52.850;6.970;2023-07-31T09:19:56;12.25;;;3.60;;
60312;SDS011;46158;52.850;6.970;2023-07-31T09:22:31;13.90;;;3.25;;
60312;SDS011;46158;52.850;6.970;2023-07-31T09:25:03;12.85;;;3.50;;
60312;SDS011;46158;52.850;6.970;2023-07-31T09:27:46;15.20;;;3.60;;
60312;SDS011;46158;52.850;6.970;2023-07-31T09:30:12;14.20;;;3.47;;
60312;SDS011;46158;52.850;6.970;2023-07-31T09:32:38;11.98;;;3.40;;
60312;SDS011;46158;52.850;6.970;2023-07-31T09:37:42;11.07;;;3.00;;
60312;SDS011;46158;52.850;6.970;2023-07-31T09:40:07;13.38;;;3.35;;
60312;SDS011;46158;52.850;6.970;2023-07-31T09:42:34;12.20;;;3.10;;
60312;SDS011;46158;52.850;6.970;2023-07-31T09:45:09;13.35;;;3.35;;
60312;SDS011;46158;52.850;6.970;2023-07-31T09:47:35;15.13;;;3.58;;
60312;SDS011;46158;52.850;6.970;2023-07-31T09:50:01;11.63;;;3.55;;
60312;SDS011;46158;52.850;6.970;2023-07-31T09:52:29;11.70;;;3.45;;
60312;SDS011;46158;52.850;6.970;2023-07-31T09:54:55;13.18;;;3.22;;
60312;SDS011;46158;52.850;6.970;2023-07-31T09:57:21;13.57;;;3.60;;
60312;SDS011;46158;52.850;6.970;2023-07-31T09:59:47;16.00;;;3.55;;
60312;SDS011;46158;52.850;6.970;2023-07-31T10:02:15;15.93;;;3.35;;
60312;SDS011;46158;52.850;6.970;2023-07-31T10:04:46;11.10;;;3.03;;
60312;SDS011;46158;52.850;6.970;2023-07-31T10:07:17;11.30;;;3.10;;
60312;SDS011;46158;52.850;6.970;2023-07-31T10:09:45;11.55;;;3.05;;
60312;SDS011;46158;52.850;6.970;2023-07-31T10:12:13;10.88;;;2.80;;
60312;SDS011;46158;52.850;6.970;2023-07-31T10:14:41;10.27;;;2.85;;
60312;SDS011;46158;52.850;6.970;2023-07-31T10:17:07;11.52;;;3.05;;
60312;SDS011;46158;52.850;6.970;2023-07-31T10:19:34;18.05;;;3.65;;
60312;SDS011;46158;52.850;6.970;2023-07-31T10:22:00;12.45;;;3.30;;
60312;SDS011;46158;52.850;6.970;2023-07-31T10:24:28;13.02;;;3.28;;
60312;SDS011;46158;52.850;6.970;2023-07-31T10:26:55;8.68;;;3.05;;
60312;SDS011;46158;52.850;6.970;2023-07-31T10:29:24;9.75;;;3.10;;
60312;SDS011;46158;52.850;6.970;2023-07-31T10:31:52;9.10;;;2.95;;
60312;SDS011;46158;52.850;6.970;2023-07-31T10:34:18;11.45;;;3.00;;
60312;SDS011;46158;52.850;6.970;2023-07-31T10:36:44;8.23;;;2.70;;
60312;SDS011;46158;52.850;6.970;2023-07-31T10:42:12;12.95;;;3.25;;
60312;SDS011;46158;52.850;6.970;2023-07-31T10:44:43;11.20;;;2.88;;
60312;SDS011;46158;52.850;6.970;2023-07-31T10:47:10;12.32;;;3.00;;
60312;SDS011;46158;52.850;6.970;2023-07-31T10:49:39;12.88;;;2.95;;
60312;SDS011;46158;52.850;6.970;2023-07-31T10:52:04;13.75;;;3.10;;
60312;SDS011;46158;52.850;6.970;2023-07-31T10:54:35;8.23;;;2.53;;
60312;SDS011;46158;52.850;6.970;2023-07-31T10:57:01;12.20;;;3.05;;
60312;SDS011;46158;52.850;6.970;2023-07-31T10:59:27;10.82;;;2.90;;
60312;SDS011;46158;52.850;6.970;2023-07-31T11:01:59;9.40;;;2.70;;
60312;SDS011;46158;52.850;6.970;2023-07-31T11:04:27;8.88;;;2.92;;
60312;SDS011;46158;52.850;6.970;2023-07-31T11:06:59;8.38;;;2.60;;
60312;SDS011;46158;52.850;6.970;2023-07-31T11:09:28;12.10;;;3.03;;
60312;SDS011;46158;52.850;6.970;2023-07-31T11:11:55;7.25;;;2.47;;
60312;SDS011;46158;52.850;6.970;2023-07-31T11:14:21;10.85;;;2.60;;
60312;SDS011;46158;52.850;6.970;2023-07-31T11:16:50;8.25;;;2.78;;
60312;SDS011;46158;52.850;6.970;2023-07-31T11:19:22;10.77;;;2.55;;
60312;SDS011;46158;52.850;6.970;2023-07-31T11:21:49;10.77;;;2.92;;
60312;SDS011;46158;52.850;6.970;2023-07-31T11:24:15;10.10;;;2.60;;
60312;SDS011;46158;52.850;6.970;2023-07-31T11:26:49;8.90;;;2.58;;
60312;SDS011;46158;52.850;6.970;2023-07-31T11:29:15;8.05;;;2.72;;
60312;SDS011;46158;52.850;6.970;2023-07-31T11:31:44;8.15;;;2.50;;
60312;SDS011;46158;52.850;6.970;2023-07-31T11:34:11;6.75;;;2.60;;
60312;SDS011;46158;52.850;6.970;2023-07-31T11:36:37;7.75;;;2.40;;
60312;SDS011;46158;52.850;6.970;2023-07-31T11:39:07;8.13;;;2.20;;
60312;SDS011;46158;52.850;6.970;2023-07-31T11:41:34;8.23;;;2.60;;
60312;SDS011;46158;52.850;6.970;2023-07-31T11:44:00;10.73;;;2.47;;
60312;SDS011;46158;52.850;6.970;2023-07-31T11:46:26;7.35;;;2.58;;
60312;SDS011;46158;52.850;6.970;2023-07-31T11:48:58;8.23;;;2.30;;
60312;SDS011;46158;52.850;6.970;2023-07-31T11:53:52;7.63;;;2.20;;
60312;SDS011;46158;52.850;6.970;2023-07-31T11:56:21;4.85;;;2.30;;
60312;SDS011;46158;52.850;6.970;2023-07-31T11:58:53;5.93;;;2.20;;
60312;SDS011;46158;52.850;6.970;2023-07-31T12:01:24;8.05;;;2.55;;
60312;SDS011;46158;52.850;6.970;2023-07-31T12:03:51;6.78;;;2.15;;
60312;SDS011;46158;52.850;6.970;2023-07-31T12:06:17;6.53;;;2.30;;
60312;SDS011;46158;52.850;6.970;2023-07-31T12:08:43;4.70;;;2.08;;
60312;SDS011;46158;52.850;6.970;2023-07-31T12:11:09;6.13;;;2.20;;
60312;SDS011;46158;52.850;6.970;2023-07-31T12:13:35;6.10;;;2.30;;
60312;SDS011;46158;52.850;6.970;2023-07-31T12:16:01;6.50;;;2.17;;
60312;SDS011;46158;52.850;6.970;2023-07-31T12:18:29;5.72;;;2.10;;
60312;SDS011;46158;52.850;6.970;2023-07-31T12:20:59;4.75;;;2.10;;
60312;SDS011;46158;52.850;6.970;2023-07-31T12:23:26;8.18;;;2.30;;
60312;SDS011;46158;52.850;6.970;2023-07-31T12:26:03;6.18;;;2.10;;
60312;SDS011;46158;52.850;6.970;2023-07-31T12:28:29;9.70;;;2.40;;
60312;SDS011;46158;52.850;6.970;2023-07-31T12:30:59;4.70;;;2.00;;
60312;SDS011;46158;52.850;6.970;2023-07-31T12:33:30;4.38;;;2.00;;
60312;SDS011;46158;52.850;6.970;2023-07-31T12:35:58;3.92;;;2.00;;
60312;SDS011;46158;52.850;6.970;2023-07-31T12:38:25;7.22;;;2.13;;
60312;SDS011;46158;52.850;6.970;2023-07-31T12:40:51;6.82;;;2.10;;
60312;SDS011;46158;52.850;6.970;2023-07-31T12:43:17;4.82;;;2.10;;
60312;SDS011;46158;52.850;6.970;2023-07-31T12:45:42;4.03;;;1.70;;
60312;SDS011;46158;52.850;6.970;2023-07-31T12:48:08;5.82;;;2.10;;
60312;SDS011;46158;52.850;6.970;2023-07-31T12:50:33;6.50;;;2.00;;
60312;SDS011;46158;52.850;6.970;2023-07-31T12:53:01;4.15;;;1.95;;
60312;SDS011;46158;52.850;6.970;2023-07-31T12:55:28;4.03;;;1.83;;
60312;SDS011;46158;52.850;6.970;2023-07-31T12:57:55;3.58;;;1.92;;
60312;SDS011;46158;52.850;6.970;2023-07-31T13:00:21;4.10;;;1.80;;
60312;SDS011;46158;52.850;6.970;2023-07-31T13:02:47;3.70;;;1.90;;
60312;SDS011;46158;52.850;6.970;2023-07-31T13:05:12;5.50;;;2.17;;
60312;SDS011;46158;52.850;6.970;2023-07-31T13:07:39;6.28;;;1.98;;
60312;SDS011;46158;52.850;6.970;2023-07-31T13:10:05;4.55;;;1.90;;
60312;SDS011;46158;52.850;6.970;2023-07-31T13:12:32;4.60;;;2.10;;
60312;SDS011;46158;52.850;6.970;2023-07-31T13:14:57;4.95;;;1.90;;
60312;SDS011;46158;52.850;6.970;2023-07-31T13:17:23;3.83;;;1.80;;
60312;SDS011;46158;52.850;6.970;2023-07-31T13:19:49;3.85;;;1.90;;
60312;SDS011;46158;52.850;6.970;2023-07-31T13:22:14;4.55;;;1.90;;
60312;SDS011;46158;52.850;6.970;2023-07-31T13:24:41;3.03;;;1.88;;
60312;SDS011;46158;52.850;6.970;2023-07-31T13:27:08;6.30;;;1.90;;
60312;SDS011;46158;52.850;6.970;2023-07-31T13:29:33;4.18;;;1.98;;
60312;SDS011;46158;52.850;6.970;2023-07-31T13:31:59;2.45;;;1.70;;
60312;SDS011;46158;52.850;6.970;2023-07-31T13:34:25;4.95;;;1.75;;
60312;SDS011;46158;52.850;6.970;2023-07-31T13:36:51;4.38;;;1.70;;
60312;SDS011;46158;52.850;6.970;2023-07-31T13:39:16;4.45;;;1.80;;
60312;SDS011;46158;52.850;6.970;2023-07-31T13:41:42;3.20;;;1.80;;
60312;SDS011;46158;52.850;6.970;2023-07-31T13:44:07;3.55;;;1.75;;
60312;SDS011;46158;52.850;6.970;2023-07-31T13:46:33;3.70;;;1.90;;
60312;SDS011;46158;52.850;6.970;2023-07-31T13:48:59;3.88;;;1.70;;
60312;SDS011;46158;52.850;6.970;2023-07-31T13:51:26;4.07;;;1.73;;
60312;SDS011;46158;52.850;6.970;2023-07-31T13:53:53;7.47;;;2.00;;
60312;SDS011;46158;52.850;6.970;2023-07-31T13:56:19;4.47;;;1.90;;
60312;SDS011;46158;52.850;6.970;2023-07-31T13:58:44;4.25;;;1.90;;
60312;SDS011;46158;52.850;6.970;2023-07-31T14:01:10;3.90;;;1.60;;
60312;SDS011;46158;52.850;6.970;2023-07-31T14:03:36;4.88;;;2.00;;
60312;SDS011;46158;52.850;6.970;2023-07-31T14:06:02;5.93;;;2.00;;
60312;SDS011;46158;52.850;6.970;2023-07-31T14:08:28;3.45;;;2.00;;
60312;SDS011;46158;52.850;6.970;2023-07-31T14:10:55;3.20;;;1.85;;
60312;SDS011;46158;52.850;6.970;2023-07-31T14:13:21;6.93;;;2.00;;
60312;SDS011;46158;52.850;6.970;2023-07-31T14:15:46;3.42;;;1.92;;
60312;SDS011;46158;52.850;6.970;2023-07-31T14:18:12;5.43;;;1.80;;
60312;SDS011;46158;52.850;6.970;2023-07-31T14:20:38;5.45;;;1.80;;
60312;SDS011;46158;52.850;6.970;2023-07-31T14:23:03;4.65;;;1.80;;
60312;SDS011;46158;52.850;6.970;2023-07-31T14:25:29;3.45;;;2.00;;
60312;SDS011;46158;52.850;6.970;2023-07-31T14:27:55;5.07;;;1.90;;
60312;SDS011;46158;52.850;6.970;2023-07-31T14:30:20;5.85;;;1.92;;
60312;SDS011;46158;52.850;6.970;2023-07-31T14:32:46;2.95;;;1.90;;
60312;SDS011;46158;52.850;6.970;2023-07-31T14:35:12;3.97;;;2.00;;
60312;SDS011;46158;52.850;6.970;2023-07-31T14:37:41;3.60;;;2.03;;
60312;SDS011;46158;52.850;6.970;2023-07-31T14:40:09;5.00;;;2.00;;
60312;SDS011;46158;52.850;6.970;2023-07-31T14:42:36;5.15;;;2.20;;
60312;SDS011;46158;52.850;6.970;2023-07-31T14:45:05;3.08;;;1.75;;
60312;SDS011;46158;52.850;6.970;2023-07-31T14:49:58;4.00;;;1.92;;
60312;SDS011;46158;52.850;6.970;2023-07-31T14:52:25;3.45;;;1.83;;
60312;SDS011;46158;52.850;6.970;2023-07-31T14:54:51;2.90;;;1.60;;
60312;SDS011;46158;52.850;6.970;2023-07-31T14:57:17;3.42;;;1.90;;